sensor_id;sensor_type;location;lat;lon;timestamp;temperature;humidity
53748;DHT22;39655;53.210;5.768;2022-12-07T00:01:29;4.00;93.10
53748;DHT22;39655;53.210;5.768;2022-12-07T00:03:59;4.00;93.20
53748;DHT22;39655;53.210;5.768;2022-12-07T00:06:32;4.00;93.30
53748;DHT22;39655;53.210;5.768;2022-12-07T00:08:58;4.00;93.40
53748;DHT22;39655;53.210;5.768;2022-12-07T00:11:24;4.00;93.50
53748;DHT22;39655;53.210;5.768;2022-12-07T00:13:58;4.00;93.60
53748;DHT22;39655;53.210;5.768;2022-12-07T00:16:27;4.00;93.90
53748;DHT22;39655;53.210;5.768;2022-12-07T00:18:52;4.00;94.10
53748;DHT22;39655;53.210;5.768;2022-12-07T00:21:23;4.00;94.30
53748;DHT22;39655;53.210;5.768;2022-12-07T00:23:50;4.00;94.30
53748;DHT22;39655;53.210;5.768;2022-12-07T00:26:19;4.10;94.80
53748;DHT22;39655;53.210;5.768;2022-12-07T00:28:47;4.30;94.90
53748;DHT22;39655;53.210;5.768;2022-12-07T00:31:13;4.40;94.60
53748;DHT22;39655;53.210;5.768;2022-12-07T00:33:40;4.60;93.40
53748;DHT22;39655;53.210;5.768;2022-12-07T00:36:08;4.80;90.60
53748;DHT22;39655;53.210;5.768;2022-12-07T00:38:36;4.90;90.00
53748;DHT22;39655;53.210;5.768;2022-12-07T00:41:09;4.90;89.00
53748;DHT22;39655;53.210;5.768;2022-12-07T00:43:35;4.90;89.40
53748;DHT22;39655;53.210;5.768;2022-12-07T00:46:01;4.80;89.80
53748;DHT22;39655;53.210;5.768;2022-12-07T00:48:26;4.80;90.00
53748;DHT22;39655;53.210;5.768;2022-12-07T00:50:52;4.70;90.30
53748;DHT22;39655;53.210;5.768;2022-12-07T00:53:18;4.60;90.50
53748;DHT22;39655;53.210;5.768;2022-12-07T00:55:44;4.50;90.80
53748;DHT22;39655;53.210;5.768;2022-12-07T00:58:10;4.40;90.90
53748;DHT22;39655;53.210;5.768;2022-12-07T01:00:38;4.30;91.10
53748;DHT22;39655;53.210;5.768;2022-12-07T01:03:04;4.20;91.20
53748;DHT22;39655;53.210;5.768;2022-12-07T01:05:30;4.20;91.40
53748;DHT22;39655;53.210;5.768;2022-12-07T01:07:56;4.10;91.70
53748;DHT22;39655;53.210;5.768;2022-12-07T01:10:22;4.10;91.90
53748;DHT22;39655;53.210;5.768;2022-12-07T01:12:48;4.20;93.30
53748;DHT22;39655;53.210;5.768;2022-12-07T01:15:14;4.40;93.90
53748;DHT22;39655;53.210;5.768;2022-12-07T01:17:39;4.50;94.40
53748;DHT22;39655;53.210;5.768;2022-12-07T01:20:06;4.50;94.70
53748;DHT22;39655;53.210;5.768;2022-12-07T01:22:35;4.50;94.70
53748;DHT22;39655;53.210;5.768;2022-12-07T01:25:01;4.50;94.70
53748;DHT22;39655;53.210;5.768;2022-12-07T01:27:27;4.40;94.70
53748;DHT22;39655;53.210;5.768;2022-12-07T01:29:52;4.40;94.70
53748;DHT22;39655;53.210;5.768;2022-12-07T01:32:18;4.30;94.70
53748;DHT22;39655;53.210;5.768;2022-12-07T01:34:44;4.30;94.70
53748;DHT22;39655;53.210;5.768;2022-12-07T01:37:09;4.30;94.70
53748;DHT22;39655;53.210;5.768;2022-12-07T01:39:35;4.20;94.70
53748;DHT22;39655;53.210;5.768;2022-12-07T01:42:00;4.20;94.90
53748;DHT22;39655;53.210;5.768;2022-12-07T01:44:28;4.20;95.00
53748;DHT22;39655;53.210;5.768;2022-12-07T01:47:04;4.20;95.10
53748;DHT22;39655;53.210;5.768;2022-12-07T01:49:38;4.30;95.10
53748;DHT22;39655;53.210;5.768;2022-12-07T01:52:20;4.30;95.10
53748;DHT22;39655;53.210;5.768;2022-12-07T01:54:50;4.40;95.00
53748;DHT22;39655;53.210;5.768;2022-12-07T01:57:17;4.50;94.90
53748;DHT22;39655;53.210;5.768;2022-12-07T01:59:45;4.50;94.90
53748;DHT22;39655;53.210;5.768;2022-12-07T02:02:36;4.50;94.70
53748;DHT22;39655;53.210;5.768;2022-12-07T02:05:04;4.50;94.40
53748;DHT22;39655;53.210;5.768;2022-12-07T02:07:31;4.50;94.20
53748;DHT22;39655;53.210;5.768;2022-12-07T02:10:21;4.50;94.00
53748;DHT22;39655;53.210;5.768;2022-12-07T02:12:55;4.50;93.90
53748;DHT22;39655;53.210;5.768;2022-12-07T02:15:51;4.40;94.00
53748;DHT22;39655;53.210;5.768;2022-12-07T02:24:15;4.50;93.10
53748;DHT22;39655;53.210;5.768;2022-12-07T02:33:03;4.70;92.80
53748;DHT22;39655;53.210;5.768;2022-12-07T02:36:04;4.70;91.50
53748;DHT22;39655;53.210;5.768;2022-12-07T02:39:00;4.80;90.90
53748;DHT22;39655;53.210;5.768;2022-12-07T02:41:28;4.90;90.60
53748;DHT22;39655;53.210;5.768;2022-12-07T02:44:01;4.90;90.20
53748;DHT22;39655;53.210;5.768;2022-12-07T02:46:31;4.90;90.10
53748;DHT22;39655;53.210;5.768;2022-12-07T02:49:35;4.90;89.60
53748;DHT22;39655;53.210;5.768;2022-12-07T02:52:01;4.80;89.30
53748;DHT22;39655;53.210;5.768;2022-12-07T02:54:27;4.80;89.30
53748;DHT22;39655;53.210;5.768;2022-12-07T02:56:58;4.70;89.50
53748;DHT22;39655;53.210;5.768;2022-12-07T03:07:15;4.50;90.00
53748;DHT22;39655;53.210;5.768;2022-12-07T03:09:59;4.40;90.40
53748;DHT22;39655;53.210;5.768;2022-12-07T03:13:16;4.40;90.60
53748;DHT22;39655;53.210;5.768;2022-12-07T03:18:26;4.20;91.70
53748;DHT22;39655;53.210;5.768;2022-12-07T03:20:55;4.30;91.90
53748;DHT22;39655;53.210;5.768;2022-12-07T03:23:23;4.40;91.40
53748;DHT22;39655;53.210;5.768;2022-12-07T03:25:55;4.40;91.20
53748;DHT22;39655;53.210;5.768;2022-12-07T03:28:24;4.40;90.70
53748;DHT22;39655;53.210;5.768;2022-12-07T03:31:02;4.40;90.50
53748;DHT22;39655;53.210;5.768;2022-12-07T03:33:33;4.40;90.30
53748;DHT22;39655;53.210;5.768;2022-12-07T03:36:04;4.40;90.10
53748;DHT22;39655;53.210;5.768;2022-12-07T03:38:48;4.50;89.90
53748;DHT22;39655;53.210;5.768;2022-12-07T03:41:19;4.50;89.00
53748;DHT22;39655;53.210;5.768;2022-12-07T03:43:47;4.60;88.40
53748;DHT22;39655;53.210;5.768;2022-12-07T03:46:29;4.70;88.40
53748;DHT22;39655;53.210;5.768;2022-12-07T03:49:18;4.70;89.00
53748;DHT22;39655;53.210;5.768;2022-12-07T03:52:03;4.70;89.80
53748;DHT22;39655;53.210;5.768;2022-12-07T03:54:52;4.60;90.60
53748;DHT22;39655;53.210;5.768;2022-12-07T03:57:19;4.60;90.60
53748;DHT22;39655;53.210;5.768;2022-12-07T03:59:46;4.60;90.60
53748;DHT22;39655;53.210;5.768;2022-12-07T04:02:13;4.60;90.80
53748;DHT22;39655;53.210;5.768;2022-12-07T04:04:40;4.50;90.80
53748;DHT22;39655;53.210;5.768;2022-12-07T04:07:06;4.50;90.80
53748;DHT22;39655;53.210;5.768;2022-12-07T04:09:32;4.40;90.80
53748;DHT22;39655;53.210;5.768;2022-12-07T04:11:57;4.30;90.40
53748;DHT22;39655;53.210;5.768;2022-12-07T04:14:23;4.30;90.40
53748;DHT22;39655;53.210;5.768;2022-12-07T04:16:50;4.20;90.50
53748;DHT22;39655;53.210;5.768;2022-12-07T04:19:18;4.20;90.60
53748;DHT22;39655;53.210;5.768;2022-12-07T04:21:44;4.10;90.70
53748;DHT22;39655;53.210;5.768;2022-12-07T04:24:12;4.10;90.80
53748;DHT22;39655;53.210;5.768;2022-12-07T04:26:38;4.10;91.10
53748;DHT22;39655;53.210;5.768;2022-12-07T04:29:03;4.10;91.10
53748;DHT22;39655;53.210;5.768;2022-12-07T04:31:29;4.10;91.40
53748;DHT22;39655;53.210;5.768;2022-12-07T04:33:55;4.10;91.70
53748;DHT22;39655;53.210;5.768;2022-12-07T04:36:20;4.10;91.70
53748;DHT22;39655;53.210;5.768;2022-12-07T04:38:46;4.00;91.70
53748;DHT22;39655;53.210;5.768;2022-12-07T04:41:12;4.00;91.80
53748;DHT22;39655;53.210;5.768;2022-12-07T04:43:38;3.90;91.80
53748;DHT22;39655;53.210;5.768;2022-12-07T04:46:03;3.90;92.00
53748;DHT22;39655;53.210;5.768;2022-12-07T04:48:29;3.90;92.30
53748;DHT22;39655;53.210;5.768;2022-12-07T04:50:55;3.90;92.40
53748;DHT22;39655;53.210;5.768;2022-12-07T04:53:21;3.90;93.10
53748;DHT22;39655;53.210;5.768;2022-12-07T04:55:47;4.10;93.80
53748;DHT22;39655;53.210;5.768;2022-12-07T04:58:13;4.20;93.70
53748;DHT22;39655;53.210;5.768;2022-12-07T05:00:39;4.40;93.60
53748;DHT22;39655;53.210;5.768;2022-12-07T05:03:05;4.50;93.50
53748;DHT22;39655;53.210;5.768;2022-12-07T05:05:31;4.50;93.30
53748;DHT22;39655;53.210;5.768;2022-12-07T05:07:56;4.60;92.40
53748;DHT22;39655;53.210;5.768;2022-12-07T05:10:22;4.60;92.20
53748;DHT22;39655;53.210;5.768;2022-12-07T05:12:48;4.60;91.90
53748;DHT22;39655;53.210;5.768;2022-12-07T05:15:15;4.60;91.80
53748;DHT22;39655;53.210;5.768;2022-12-07T05:17:41;4.50;92.00
53748;DHT22;39655;53.210;5.768;2022-12-07T05:20:07;4.50;92.20
53748;DHT22;39655;53.210;5.768;2022-12-07T05:22:33;4.40;92.20
53748;DHT22;39655;53.210;5.768;2022-12-07T05:24:59;4.30;92.20
53748;DHT22;39655;53.210;5.768;2022-12-07T05:27:25;4.20;92.60
53748;DHT22;39655;53.210;5.768;2022-12-07T05:29:51;4.20;92.70
53748;DHT22;39655;53.210;5.768;2022-12-07T05:32:17;4.20;92.80
53748;DHT22;39655;53.210;5.768;2022-12-07T05:34:43;4.10;92.80
53748;DHT22;39655;53.210;5.768;2022-12-07T05:37:08;4.10;92.80
53748;DHT22;39655;53.210;5.768;2022-12-07T05:39:34;4.00;92.80
53748;DHT22;39655;53.210;5.768;2022-12-07T05:42:00;3.90;92.90
53748;DHT22;39655;53.210;5.768;2022-12-07T05:44:41;3.90;93.00
53748;DHT22;39655;53.210;5.768;2022-12-07T05:47:07;3.90;93.20
53748;DHT22;39655;53.210;5.768;2022-12-07T05:49:33;3.80;93.30
53748;DHT22;39655;53.210;5.768;2022-12-07T05:51:59;3.80;94.00
53748;DHT22;39655;53.210;5.768;2022-12-07T05:54:25;3.90;94.40
53748;DHT22;39655;53.210;5.768;2022-12-07T05:56:50;3.90;94.30
53748;DHT22;39655;53.210;5.768;2022-12-07T05:59:16;3.90;94.20
53748;DHT22;39655;53.210;5.768;2022-12-07T06:02:05;3.90;94.10
53748;DHT22;39655;53.210;5.768;2022-12-07T06:04:34;3.80;94.10
53748;DHT22;39655;53.210;5.768;2022-12-07T06:07:00;3.80;94.00
53748;DHT22;39655;53.210;5.768;2022-12-07T06:09:26;3.70;94.00
53748;DHT22;39655;53.210;5.768;2022-12-07T06:11:53;3.70;93.90
53748;DHT22;39655;53.210;5.768;2022-12-07T06:14:38;3.60;93.90
53748;DHT22;39655;53.210;5.768;2022-12-07T06:17:04;3.50;93.80
53748;DHT22;39655;53.210;5.768;2022-12-07T06:19:30;3.50;93.80
53748;DHT22;39655;53.210;5.768;2022-12-07T06:21:55;3.40;93.70
53748;DHT22;39655;53.210;5.768;2022-12-07T06:24:21;3.40;93.80
53748;DHT22;39655;53.210;5.768;2022-12-07T06:26:47;3.30;93.60
53748;DHT22;39655;53.210;5.768;2022-12-07T06:29:13;3.40;93.50
53748;DHT22;39655;53.210;5.768;2022-12-07T06:31:39;3.40;93.10
53748;DHT22;39655;53.210;5.768;2022-12-07T06:34:08;3.50;93.00
53748;DHT22;39655;53.210;5.768;2022-12-07T06:36:34;3.50;93.00
53748;DHT22;39655;53.210;5.768;2022-12-07T06:39:00;3.50;93.00
53748;DHT22;39655;53.210;5.768;2022-12-07T06:41:26;3.50;93.10
53748;DHT22;39655;53.210;5.768;2022-12-07T06:43:52;3.60;93.30
53748;DHT22;39655;53.210;5.768;2022-12-07T06:46:18;3.90;92.70
53748;DHT22;39655;53.210;5.768;2022-12-07T06:48:43;4.00;92.40
53748;DHT22;39655;53.210;5.768;2022-12-07T06:51:10;4.10;91.90
53748;DHT22;39655;53.210;5.768;2022-12-07T06:53:36;4.00;91.70
53748;DHT22;39655;53.210;5.768;2022-12-07T06:56:03;4.00;91.50
53748;DHT22;39655;53.210;5.768;2022-12-07T06:58:29;4.00;91.60
53748;DHT22;39655;53.210;5.768;2022-12-07T07:00:55;4.00;91.60
53748;DHT22;39655;53.210;5.768;2022-12-07T07:03:20;4.00;91.70
53748;DHT22;39655;53.210;5.768;2022-12-07T07:05:46;4.00;91.80
53748;DHT22;39655;53.210;5.768;2022-12-07T07:08:13;3.90;92.00
53748;DHT22;39655;53.210;5.768;2022-12-07T07:10:39;3.90;92.00
53748;DHT22;39655;53.210;5.768;2022-12-07T07:13:05;3.90;91.90
53748;DHT22;39655;53.210;5.768;2022-12-07T07:15:32;3.90;92.10
53748;DHT22;39655;53.210;5.768;2022-12-07T07:17:57;4.00;92.00
53748;DHT22;39655;53.210;5.768;2022-12-07T07:20:23;4.00;91.80
53748;DHT22;39655;53.210;5.768;2022-12-07T07:22:49;4.10;91.70
53748;DHT22;39655;53.210;5.768;2022-12-07T07:25:15;4.10;91.50
53748;DHT22;39655;53.210;5.768;2022-12-07T07:27:42;4.10;91.40
53748;DHT22;39655;53.210;5.768;2022-12-07T07:30:08;4.10;91.20
53748;DHT22;39655;53.210;5.768;2022-12-07T07:32:34;4.00;91.00
53748;DHT22;39655;53.210;5.768;2022-12-07T07:34:59;4.00;90.90
53748;DHT22;39655;53.210;5.768;2022-12-07T07:37:25;4.00;90.40
53748;DHT22;39655;53.210;5.768;2022-12-07T07:39:51;4.10;89.80
53748;DHT22;39655;53.210;5.768;2022-12-07T07:42:17;4.10;90.30
53748;DHT22;39655;53.210;5.768;2022-12-07T07:44:43;4.10;90.80
53748;DHT22;39655;53.210;5.768;2022-12-07T07:47:08;4.20;91.30
53748;DHT22;39655;53.210;5.768;2022-12-07T07:49:34;4.10;91.40
53748;DHT22;39655;53.210;5.768;2022-12-07T07:52:00;4.00;91.70
53748;DHT22;39655;53.210;5.768;2022-12-07T07:54:25;4.00;92.20
53748;DHT22;39655;53.210;5.768;2022-12-07T07:56:52;4.00;92.50
53748;DHT22;39655;53.210;5.768;2022-12-07T07:59:18;3.90;92.60
53748;DHT22;39655;53.210;5.768;2022-12-07T08:01:43;3.90;92.90
53748;DHT22;39655;53.210;5.768;2022-12-07T08:04:09;3.90;93.00
53748;DHT22;39655;53.210;5.768;2022-12-07T08:06:35;3.90;93.10
53748;DHT22;39655;53.210;5.768;2022-12-07T08:09:00;3.90;93.00
53748;DHT22;39655;53.210;5.768;2022-12-07T08:11:26;4.00;92.90
53748;DHT22;39655;53.210;5.768;2022-12-07T08:13:52;4.10;93.00
53748;DHT22;39655;53.210;5.768;2022-12-07T08:16:18;4.20;92.60
53748;DHT22;39655;53.210;5.768;2022-12-07T08:18:43;4.20;92.30
53748;DHT22;39655;53.210;5.768;2022-12-07T08:21:12;4.20;92.40
53748;DHT22;39655;53.210;5.768;2022-12-07T08:23:38;4.10;92.50
53748;DHT22;39655;53.210;5.768;2022-12-07T08:26:06;4.10;92.50
53748;DHT22;39655;53.210;5.768;2022-12-07T08:28:32;4.10;92.60
53748;DHT22;39655;53.210;5.768;2022-12-07T08:31:06;4.10;92.70
53748;DHT22;39655;53.210;5.768;2022-12-07T08:33:32;4.10;92.70
53748;DHT22;39655;53.210;5.768;2022-12-07T08:36:03;4.10;92.50
53748;DHT22;39655;53.210;5.768;2022-12-07T08:38:29;4.00;92.40
53748;DHT22;39655;53.210;5.768;2022-12-07T08:40:59;4.00;92.30
53748;DHT22;39655;53.210;5.768;2022-12-07T08:43:24;4.00;92.10
53748;DHT22;39655;53.210;5.768;2022-12-07T08:46:17;4.10;92.10
53748;DHT22;39655;53.210;5.768;2022-12-07T08:48:43;4.10;92.20
53748;DHT22;39655;53.210;5.768;2022-12-07T08:51:10;4.00;92.30
53748;DHT22;39655;53.210;5.768;2022-12-07T08:53:38;4.10;92.40
53748;DHT22;39655;53.210;5.768;2022-12-07T08:56:06;4.00;92.40
53748;DHT22;39655;53.210;5.768;2022-12-07T08:58:33;4.00;92.50
53748;DHT22;39655;53.210;5.768;2022-12-07T09:00:59;4.00;92.50
53748;DHT22;39655;53.210;5.768;2022-12-07T09:03:25;4.00;92.70
53748;DHT22;39655;53.210;5.768;2022-12-07T09:05:51;4.00;92.70
53748;DHT22;39655;53.210;5.768;2022-12-07T09:08:17;4.00;92.70
53748;DHT22;39655;53.210;5.768;2022-12-07T09:10:43;4.10;92.70
53748;DHT22;39655;53.210;5.768;2022-12-07T09:13:09;4.10;92.70
53748;DHT22;39655;53.210;5.768;2022-12-07T09:15:35;4.10;92.70
53748;DHT22;39655;53.210;5.768;2022-12-07T09:18:00;4.20;92.60
53748;DHT22;39655;53.210;5.768;2022-12-07T09:20:26;4.20;92.70
53748;DHT22;39655;53.210;5.768;2022-12-07T09:22:51;4.40;92.70
53748;DHT22;39655;53.210;5.768;2022-12-07T09:25:17;4.40;92.50
53748;DHT22;39655;53.210;5.768;2022-12-07T09:27:43;4.50;92.40
53748;DHT22;39655;53.210;5.768;2022-12-07T09:30:09;4.70;91.70
53748;DHT22;39655;53.210;5.768;2022-12-07T09:32:34;4.70;91.40
53748;DHT22;39655;53.210;5.768;2022-12-07T09:35:00;4.80;91.30
53748;DHT22;39655;53.210;5.768;2022-12-07T09:37:26;4.80;90.90
53748;DHT22;39655;53.210;5.768;2022-12-07T09:39:51;4.90;90.20
53748;DHT22;39655;53.210;5.768;2022-12-07T09:42:29;4.90;90.40
53748;DHT22;39655;53.210;5.768;2022-12-07T09:44:58;4.90;90.50
53748;DHT22;39655;53.210;5.768;2022-12-07T09:47:25;4.90;90.70
53748;DHT22;39655;53.210;5.768;2022-12-07T09:49:51;5.00;90.30
53748;DHT22;39655;53.210;5.768;2022-12-07T09:52:27;5.00;90.40
53748;DHT22;39655;53.210;5.768;2022-12-07T09:54:54;5.10;90.30
53748;DHT22;39655;53.210;5.768;2022-12-07T09:57:31;5.10;90.00
53748;DHT22;39655;53.210;5.768;2022-12-07T10:00:01;5.10;89.00
53748;DHT22;39655;53.210;5.768;2022-12-07T10:02:40;5.10;88.10
53748;DHT22;39655;53.210;5.768;2022-12-07T10:05:18;5.20;87.60
53748;DHT22;39655;53.210;5.768;2022-12-07T10:07:46;5.30;87.90
53748;DHT22;39655;53.210;5.768;2022-12-07T10:10:23;5.30;87.60
53748;DHT22;39655;53.210;5.768;2022-12-07T10:13:03;5.40;87.20
53748;DHT22;39655;53.210;5.768;2022-12-07T10:18:38;5.70;86.10
53748;DHT22;39655;53.210;5.768;2022-12-07T10:21:19;5.80;86.90
53748;DHT22;39655;53.210;5.768;2022-12-07T10:32:01;5.50;85.70
53748;DHT22;39655;53.210;5.768;2022-12-07T10:34:38;5.50;85.60
53748;DHT22;39655;53.210;5.768;2022-12-07T10:39:43;5.40;86.30
53748;DHT22;39655;53.210;5.768;2022-12-07T10:42:20;5.40;85.90
53748;DHT22;39655;53.210;5.768;2022-12-07T10:44:47;5.40;86.40
53748;DHT22;39655;53.210;5.768;2022-12-07T10:47:25;5.40;87.00
53748;DHT22;39655;53.210;5.768;2022-12-07T10:52:48;5.40;88.20
53748;DHT22;39655;53.210;5.768;2022-12-07T10:58:17;5.30;88.80
53748;DHT22;39655;53.210;5.768;2022-12-07T11:12:36;5.30;88.80
53748;DHT22;39655;53.210;5.768;2022-12-07T11:23:30;5.60;88.70
53748;DHT22;39655;53.210;5.768;2022-12-07T11:26:02;5.60;88.60
53748;DHT22;39655;53.210;5.768;2022-12-07T11:31:11;5.70;89.80
53748;DHT22;39655;53.210;5.768;2022-12-07T11:33:49;5.70;89.80
53748;DHT22;39655;53.210;5.768;2022-12-07T11:36:31;5.60;89.50
53748;DHT22;39655;53.210;5.768;2022-12-07T11:41:51;5.40;89.60
53748;DHT22;39655;53.210;5.768;2022-12-07T11:44:31;5.40;89.90
53748;DHT22;39655;53.210;5.768;2022-12-07T11:47:16;5.30;89.40
53748;DHT22;39655;53.210;5.768;2022-12-07T11:50:01;5.40;89.40
53748;DHT22;39655;53.210;5.768;2022-12-07T11:55:05;5.60;89.00
53748;DHT22;39655;53.210;5.768;2022-12-07T11:57:45;5.70;89.90
53748;DHT22;39655;53.210;5.768;2022-12-07T12:00:15;5.60;90.00
53748;DHT22;39655;53.210;5.768;2022-12-07T12:03:01;5.60;90.40
53748;DHT22;39655;53.210;5.768;2022-12-07T12:05:30;5.70;90.30
53748;DHT22;39655;53.210;5.768;2022-12-07T12:14:03;5.70;88.70
53748;DHT22;39655;53.210;5.768;2022-12-07T12:22:19;5.50;89.40
53748;DHT22;39655;53.210;5.768;2022-12-07T12:24:48;5.50;89.50
53748;DHT22;39655;53.210;5.768;2022-12-07T12:27:34;5.60;89.80
53748;DHT22;39655;53.210;5.768;2022-12-07T12:30:07;5.60;90.40
53748;DHT22;39655;53.210;5.768;2022-12-07T12:32:49;5.70;90.90
53748;DHT22;39655;53.210;5.768;2022-12-07T12:38:33;5.80;90.60
53748;DHT22;39655;53.210;5.768;2022-12-07T12:51:46;5.90;87.10
53748;DHT22;39655;53.210;5.768;2022-12-07T12:54:26;5.70;86.60
53748;DHT22;39655;53.210;5.768;2022-12-07T12:57:07;5.60;86.00
53748;DHT22;39655;53.210;5.768;2022-12-07T12:59:36;5.50;86.40
53748;DHT22;39655;53.210;5.768;2022-12-07T13:02:27;5.40;87.00
53748;DHT22;39655;53.210;5.768;2022-12-07T13:05:00;5.40;87.40
53748;DHT22;39655;53.210;5.768;2022-12-07T13:18:00;5.40;87.10
53748;DHT22;39655;53.210;5.768;2022-12-07T13:23:12;5.40;87.80
53748;DHT22;39655;53.210;5.768;2022-12-07T13:25:54;5.30;87.80
53748;DHT22;39655;53.210;5.768;2022-12-07T13:28:22;5.40;87.00
53748;DHT22;39655;53.210;5.768;2022-12-07T13:33:44;5.20;87.20
53748;DHT22;39655;53.210;5.768;2022-12-07T13:36:20;5.10;87.20
53748;DHT22;39655;53.210;5.768;2022-12-07T13:38:58;5.10;87.20
53748;DHT22;39655;53.210;5.768;2022-12-07T13:41:26;5.00;88.00
53748;DHT22;39655;53.210;5.768;2022-12-07T13:43:59;5.00;87.80
53748;DHT22;39655;53.210;5.768;2022-12-07T13:46:57;5.00;87.90
53748;DHT22;39655;53.210;5.768;2022-12-07T13:49:28;5.00;87.60
53748;DHT22;39655;53.210;5.768;2022-12-07T13:51:54;4.90;86.90
53748;DHT22;39655;53.210;5.768;2022-12-07T13:54:21;5.00;86.80
53748;DHT22;39655;53.210;5.768;2022-12-07T13:56:51;5.00;86.90
53748;DHT22;39655;53.210;5.768;2022-12-07T13:59:20;5.00;86.70
53748;DHT22;39655;53.210;5.768;2022-12-07T14:01:47;5.00;86.80
53748;DHT22;39655;53.210;5.768;2022-12-07T14:04:19;4.90;86.40
53748;DHT22;39655;53.210;5.768;2022-12-07T14:06:51;4.90;86.70
53748;DHT22;39655;53.210;5.768;2022-12-07T14:09:20;4.90;87.00
53748;DHT22;39655;53.210;5.768;2022-12-07T14:11:50;4.90;87.00
53748;DHT22;39655;53.210;5.768;2022-12-07T14:14:20;4.80;87.10
53748;DHT22;39655;53.210;5.768;2022-12-07T14:17:09;4.90;87.30
53748;DHT22;39655;53.210;5.768;2022-12-07T14:19:44;4.80;87.10
53748;DHT22;39655;53.210;5.768;2022-12-07T14:27:38;4.70;87.30
53748;DHT22;39655;53.210;5.768;2022-12-07T14:30:05;4.70;87.40
53748;DHT22;39655;53.210;5.768;2022-12-07T14:32:31;4.70;87.80
53748;DHT22;39655;53.210;5.768;2022-12-07T14:37:30;4.70;88.30
53748;DHT22;39655;53.210;5.768;2022-12-07T14:39:58;4.60;88.50
53748;DHT22;39655;53.210;5.768;2022-12-07T14:42:27;4.60;89.00
53748;DHT22;39655;53.210;5.768;2022-12-07T14:44:54;4.60;89.40
53748;DHT22;39655;53.210;5.768;2022-12-07T14:47:20;4.50;89.70
53748;DHT22;39655;53.210;5.768;2022-12-07T14:49:45;4.50;89.80
53748;DHT22;39655;53.210;5.768;2022-12-07T14:52:21;4.40;90.00
53748;DHT22;39655;53.210;5.768;2022-12-07T14:54:48;4.50;90.10
53748;DHT22;39655;53.210;5.768;2022-12-07T14:57:14;4.50;90.20
53748;DHT22;39655;53.210;5.768;2022-12-07T14:59:40;4.50;90.40
53748;DHT22;39655;53.210;5.768;2022-12-07T15:02:08;4.40;90.40
53748;DHT22;39655;53.210;5.768;2022-12-07T15:04:34;4.40;90.40
53748;DHT22;39655;53.210;5.768;2022-12-07T15:07:02;4.40;90.60
53748;DHT22;39655;53.210;5.768;2022-12-07T15:09:29;4.40;90.40
53748;DHT22;39655;53.210;5.768;2022-12-07T15:11:54;4.30;90.60
53748;DHT22;39655;53.210;5.768;2022-12-07T15:14:20;4.40;90.70
53748;DHT22;39655;53.210;5.768;2022-12-07T15:16:46;4.30;90.60
53748;DHT22;39655;53.210;5.768;2022-12-07T15:19:15;4.40;90.10
53748;DHT22;39655;53.210;5.768;2022-12-07T15:21:42;4.50;90.50
53748;DHT22;39655;53.210;5.768;2022-12-07T15:24:11;4.50;90.90
53748;DHT22;39655;53.210;5.768;2022-12-07T15:26:38;4.50;91.00
53748;DHT22;39655;53.210;5.768;2022-12-07T15:29:04;4.40;91.20
53748;DHT22;39655;53.210;5.768;2022-12-07T15:31:30;4.40;91.40
53748;DHT22;39655;53.210;5.768;2022-12-07T15:33:55;4.40;91.40
53748;DHT22;39655;53.210;5.768;2022-12-07T15:36:24;4.30;91.40
53748;DHT22;39655;53.210;5.768;2022-12-07T15:38:50;4.30;91.40
53748;DHT22;39655;53.210;5.768;2022-12-07T15:41:16;4.30;91.40
53748;DHT22;39655;53.210;5.768;2022-12-07T15:43:42;4.30;91.40
53748;DHT22;39655;53.210;5.768;2022-12-07T15:46:30;4.20;91.40
53748;DHT22;39655;53.210;5.768;2022-12-07T15:48:56;4.20;91.40
53748;DHT22;39655;53.210;5.768;2022-12-07T15:51:22;4.20;91.40
53748;DHT22;39655;53.210;5.768;2022-12-07T15:53:47;4.20;91.40
53748;DHT22;39655;53.210;5.768;2022-12-07T15:56:13;4.20;91.50
53748;DHT22;39655;53.210;5.768;2022-12-07T15:58:38;4.10;91.50
53748;DHT22;39655;53.210;5.768;2022-12-07T16:01:16;4.10;91.60
53748;DHT22;39655;53.210;5.768;2022-12-07T16:03:42;4.10;91.60
53748;DHT22;39655;53.210;5.768;2022-12-07T16:06:07;4.10;91.70
53748;DHT22;39655;53.210;5.768;2022-12-07T16:08:33;4.10;91.70
53748;DHT22;39655;53.210;5.768;2022-12-07T16:10:59;4.00;91.80
53748;DHT22;39655;53.210;5.768;2022-12-07T16:13:25;4.00;91.70
53748;DHT22;39655;53.210;5.768;2022-12-07T16:15:51;4.00;91.70
53748;DHT22;39655;53.210;5.768;2022-12-07T16:18:16;3.90;91.70
53748;DHT22;39655;53.210;5.768;2022-12-07T16:20:42;3.90;91.80
53748;DHT22;39655;53.210;5.768;2022-12-07T16:23:07;3.90;91.70
53748;DHT22;39655;53.210;5.768;2022-12-07T16:25:33;3.90;91.80
53748;DHT22;39655;53.210;5.768;2022-12-07T16:27:59;3.90;91.80
53748;DHT22;39655;53.210;5.768;2022-12-07T16:30:25;3.80;91.70
53748;DHT22;39655;53.210;5.768;2022-12-07T16:32:51;3.80;91.80
53748;DHT22;39655;53.210;5.768;2022-12-07T16:35:17;3.80;91.80
53748;DHT22;39655;53.210;5.768;2022-12-07T16:37:43;3.80;91.90
53748;DHT22;39655;53.210;5.768;2022-12-07T16:40:10;3.80;91.90
53748;DHT22;39655;53.210;5.768;2022-12-07T16:42:36;3.80;91.90
53748;DHT22;39655;53.210;5.768;2022-12-07T16:45:02;3.80;91.90
53748;DHT22;39655;53.210;5.768;2022-12-07T16:47:28;3.80;91.80
53748;DHT22;39655;53.210;5.768;2022-12-07T16:49:53;3.80;91.40
53748;DHT22;39655;53.210;5.768;2022-12-07T16:52:20;3.80;91.20
53748;DHT22;39655;53.210;5.768;2022-12-07T16:54:49;3.90;90.40
53748;DHT22;39655;53.210;5.768;2022-12-07T16:57:16;4.10;90.40
53748;DHT22;39655;53.210;5.768;2022-12-07T16:59:41;4.10;90.40
53748;DHT22;39655;53.210;5.768;2022-12-07T17:02:10;4.20;90.90
53748;DHT22;39655;53.210;5.768;2022-12-07T17:04:37;4.20;91.70
53748;DHT22;39655;53.210;5.768;2022-12-07T17:07:05;4.20;91.80
53748;DHT22;39655;53.210;5.768;2022-12-07T17:09:31;4.20;91.70
53748;DHT22;39655;53.210;5.768;2022-12-07T17:11:57;4.30;91.80
53748;DHT22;39655;53.210;5.768;2022-12-07T17:14:23;4.20;91.70
53748;DHT22;39655;53.210;5.768;2022-12-07T17:17:07;4.30;91.80
53748;DHT22;39655;53.210;5.768;2022-12-07T17:19:32;4.20;91.50
53748;DHT22;39655;53.210;5.768;2022-12-07T17:21:59;4.20;91.20
53748;DHT22;39655;53.210;5.768;2022-12-07T17:24:24;4.20;91.10
53748;DHT22;39655;53.210;5.768;2022-12-07T17:26:50;4.20;91.00
53748;DHT22;39655;53.210;5.768;2022-12-07T17:29:17;4.20;91.00
53748;DHT22;39655;53.210;5.768;2022-12-07T17:31:44;4.20;91.10
53748;DHT22;39655;53.210;5.768;2022-12-07T17:34:14;4.10;91.10
53748;DHT22;39655;53.210;5.768;2022-12-07T17:36:41;4.10;91.50
53748;DHT22;39655;53.210;5.768;2022-12-07T17:39:08;4.10;91.50
53748;DHT22;39655;53.210;5.768;2022-12-07T17:41:36;4.00;91.50
53748;DHT22;39655;53.210;5.768;2022-12-07T17:44:21;4.00;91.60
53748;DHT22;39655;53.210;5.768;2022-12-07T17:46:49;3.90;91.70
53748;DHT22;39655;53.210;5.768;2022-12-07T17:49:15;3.90;91.80
53748;DHT22;39655;53.210;5.768;2022-12-07T17:51:41;3.80;91.90
53748;DHT22;39655;53.210;5.768;2022-12-07T17:54:25;3.80;91.90
53748;DHT22;39655;53.210;5.768;2022-12-07T17:56:51;3.80;92.00
53748;DHT22;39655;53.210;5.768;2022-12-07T17:59:17;3.70;92.10